Flight Track Log - Related Links

Times and Time Zones

All times are in EDT time to prevent confusion due to time zone crossing. See the AWE433 flight status page for this flight to view local times or setup timezone preferences in your user account.

Time Position Orientation Groundspeed Altitude Reporting Facility
EDT Latitude Longitude Course Direction KTS MPH feet Rate Location/Type
Mon 05:21:59 PM 37.6333 -122.4000 67° East 151 174 2,100  Level Northern Cal TRACON
Mon 05:22:59 PM 37.6500 -122.4500 293° West 156 180 3,600 1,400 Climbing Northern Cal TRACON
Mon 05:23:59 PM 37.6833 -122.5167 302° West 226 260 4,900 1,628 Climbing Northern Cal TRACON
Mon 05:24:00 PM 37.6397 -121.9571 50° Northeast  Level FlightAware Approximate
Mon 05:25:00 PM 37.7297 -121.8358 45° Northeast  Level FlightAware Approximate
Mon 05:25:08 PM 37.7578 -122.5339 350° North 249 287 7,100  Level Oakland Center
Mon 05:26:00 PM 37.8102 -121.7060 65° Northeast  Level FlightAware Approximate
Mon 05:26:09 PM 37.8306 -122.5039 18° North 301 346 9,100  Level Oakland Center
Mon 05:27:00 PM 37.8645 -121.5565 67° East  Level FlightAware Approximate
Mon 05:27:11 PM 37.8508 -122.4006 76° East 305 351 10,900  Level Oakland Center
Mon 05:28:12 PM 37.8714 -122.2756 78° East 358 412 12,000 1,574 Climbing Oakland Center
Mon 05:29:13 PM 37.8978 -122.1156 78° East 384 442 14,100 1,721 Climbing Oakland Center
Mon 05:30:14 PM 37.9225 -121.9703 78° East 421 484 15,500 1,525 Climbing Oakland Center
Mon 05:31:15 PM 37.9456 -121.8214 79° East 428 493 17,200 1,525 Climbing Oakland Center
Mon 05:32:16 PM 37.9692 -121.6789 78° East 441 507 18,600 1,512 Climbing Oakland Center
Mon 05:33:18 PM 37.9942 -121.5214 79° East 453 521 20,300 1,512 Climbing Oakland Center
Mon 05:34:19 PM 38.0233 -121.3306 79° East 459 528 21,700 1,328 Climbing Oakland Center
Mon 05:35:20 PM 38.0486 -121.1689 79° East 468 539 23,000 1,180 Climbing Oakland Center
Mon 05:36:21 PM 38.0739 -121.0061 79° East 471 542 24,100 934 Climbing Oakland Center
Mon 05:37:22 PM 38.0969 -120.8386 80° East 481 554 24,900 878 Climbing Oakland Center
Mon 05:38:24 PM 38.1189 -120.6694 81° East 485 558 25,900 1,024 Climbing Oakland Center
Mon 05:39:25 PM 38.1411 -120.4989 81° East 490 564 27,000 541 Climbing Oakland Center
Mon 05:40:26 PM 38.1642 -120.3267 80° East 493 567 27,000  Level Oakland Center
Mon 05:41:28 PM 38.1864 -120.1517 81° East 502 578 27,000 49 Level Oakland Center
Mon 05:42:28 PM 38.2103 -119.9753 80° East 505 581 27,100 347 Climbing Oakland Center
Mon 05:43:29 PM 38.2356 -119.7656 81° East 504 580 27,700 537 Climbing Oakland Center
Mon 05:44:31 PM 38.2592 -119.5933 80° East 496 571 28,200 1,084 Climbing Oakland Center
Mon 05:50:13 PM 37.7780 -119.8684 260° West 327 376 35,000 391 Climbing FlightAware ADS-B (KSAC)
Mon 05:51:41 PM 38.4153 -118.2656 260° West 551 634 31,000 -1,600 Descending Salt Lake Center
Mon 05:52:43 PM 38.4367 -118.0719 82° East 550 633 31,000 50 Level Salt Lake Center
Mon 05:53:41 PM 38.4578 -117.8789 82° East 550 633 31,100 50 Climbing Oakland Center
Mon 05:54:43 PM 38.4789 -117.6833 82° East 550 633 31,100 -49 Level Oakland Center
Mon 05:55:44 PM 38.4989 -117.4875 83° East 550 633 31,000 -49 Descending Oakland Center
Mon 05:56:45 PM 38.5175 -117.2914 83° East 550 633 31,000  Level Oakland Center
Mon 05:57:46 PM 38.5156 -117.0956 91° East 550 633 31,000  Level Oakland Center
Mon 05:58:53 PM 38.5111 -116.9006 92° East 546 628 31,000  Level Salt Lake Center
Mon 05:59:49 PM 38.5072 -116.7042 91° East 547 629 31,000  Level Oakland Center
Mon 06:00:57 PM 38.5006 -116.4706 92° East 547 629 31,000  Level Salt Lake Center
Mon 06:01:59 PM 38.4969 -116.2742 91° East 548 631 31,000 49 Level Salt Lake Center
Mon 06:03:00 PM 38.4911 -116.0775 92° East 549 632 31,100  Climbing Salt Lake Center
Mon 06:04:02 PM 38.4850 -115.8822 92° East 549 632 31,000 -48 Descending Salt Lake Center
Mon 06:05:04 PM 38.4781 -115.6856 93° East 550 633 31,000  Level Salt Lake Center
Mon 06:06:05 PM 38.4722 -115.4878 92° East 553 636 31,000 244 Level Salt Lake Center
Mon 06:07:07 PM 38.4639 -115.2814 93° East 554 638 31,500 585 Climbing Salt Lake Center
Mon 06:08:08 PM 38.4542 -115.0842 94° East 554 638 32,200 780 Climbing Salt Lake Center
Mon 06:09:10 PM 38.4467 -114.8839 93° East 562 647 33,100 919 Climbing Salt Lake Center
Mon 06:10:12 PM 38.4367 -114.6475 93° East 562 647 34,100 732 Climbing Salt Lake Center
Mon 06:11:13 PM 38.4289 -114.4489 93° East 562 647 34,600 439 Climbing Salt Lake Center
Mon 06:12:15 PM 38.4231 -114.2472 92° East 562 647 35,000 195 Climbing Salt Lake Center
Mon 06:13:16 PM 38.4136 -114.0489 93° East 563 648 35,000  Level Salt Lake Center
Mon 06:14:18 PM 38.4047 -113.8486 93° East 563 648 35,000 48 Level Salt Lake Center
Mon 06:15:20 PM 38.3944 -113.6506 94° East 562 647 35,100 49 Climbing Salt Lake Center
Mon 06:16:21 PM 38.3839 -113.4506 94° East 562 647 35,100  Level Salt Lake Center
Mon 06:17:23 PM 38.3733 -113.2494 94° East 562 647 35,100 -49 Level Salt Lake Center
Mon 06:18:24 PM 38.3714 -113.0497 91° East 563 648 35,000 -49 Descending Salt Lake Center
Mon 06:19:26 PM 38.4069 -112.8108 79° East 564 649 35,000  Level Salt Lake Center
Mon 06:20:28 PM 38.4519 -112.6119 74° East 575 662 35,000  Level Salt Lake Center
Mon 06:21:29 PM 38.4953 -112.4167 74° East 575 662 35,000  Level Salt Lake Center
Mon 06:22:31 PM 38.5386 -112.2203 74° East 574 661 35,000  Level Salt Lake Center
Mon 06:23:32 PM 38.5828 -112.0264 74° East 573 659 35,000 49 Level Salt Lake Center
Mon 06:24:34 PM 38.6242 -111.8289 75° East 574 661 35,100  Climbing Salt Lake Center
Mon 06:25:36 PM 38.6658 -111.6325 75° East 573 659 35,000 -49 Descending Salt Lake Center
Mon 06:26:37 PM 38.7081 -111.4367 74° East 573 659 35,000  Level Salt Lake Center
Mon 06:27:39 PM 38.7494 -111.2403 75° East 573 659 35,000  Level Salt Lake Center
Mon 06:28:40 PM 38.7975 -111.0039 75° East 573 659 35,000  Level Salt Lake Center
Mon 06:29:42 PM 38.8397 -110.8078 74° East 573 659 35,000  Level Salt Lake Center
Mon 06:30:44 PM 38.8775 -110.6192 76° East 573 659 35,000  Level Salt Lake Center
Mon 06:31:45 PM 38.9222 -110.3986 75° East 573 659 35,000  Level Salt Lake Center
Mon 06:32:47 PM 38.9594 -110.2108 76° East 571 657 35,000  Level Salt Lake Center
Mon 06:33:49 PM 39.0019 -109.9919 76° East 569 655 35,000  Level Salt Lake Center
Mon 06:34:45 PM 39.0264 -109.8336 79° East 565 650 35,000  Level Denver Center
Mon 06:35:47 PM 39.0606 -109.6131 79° East 564 649 35,000  Level Denver Center
Mon 06:36:48 PM 39.0894 -109.4244 79° East 564 649 35,000  Level Denver Center
Mon 06:37:55 PM 39.1253 -109.2086 78° East 564 649 35,000  Level Salt Lake Center
Mon 06:38:52 PM 39.1531 -109.0167 79° East 563 648 35,000 51 Level Denver Center
Mon 06:39:53 PM 39.1872 -108.7983 79° East 563 648 35,100 49 Climbing Denver Center
Mon 06:40:55 PM 39.2147 -108.6117 79° East 562 647 35,100 -49 Level Denver Center
Mon 06:41:56 PM 39.2464 -108.3956 79° East 555 639 35,000 -49 Descending Denver Center
Mon 06:42:58 PM 39.2742 -108.2106 79° East 554 638 35,000  Level Denver Center
Mon 06:44:00 PM 39.3044 -107.9967 80° East 550 633 35,000  Level Denver Center
Mon 06:45:01 PM 39.3308 -107.8119 79° East 549 632 35,000  Level Denver Center
Mon 06:46:03 PM 39.3572 -107.6283 79° East 548 631 35,000  Level Denver Center
Mon 06:47:05 PM 39.3864 -107.4164 80° East 543 625 35,000  Level Denver Center
Mon 06:48:06 PM 39.4114 -107.2333 80° East 542 624 35,000  Level Denver Center
Mon 06:49:08 PM 39.4400 -107.0214 80° East 540 621 35,000 48 Level Denver Center
Mon 06:50:10 PM 39.4633 -106.8386 81° East 539 620 35,100  Climbing Denver Center
Mon 06:51:11 PM 39.4922 -106.6269 80° East 538 619 35,000 -49 Descending Denver Center
Mon 06:52:13 PM 39.5169 -106.4394 80° East 537 618 35,000 48 Level Denver Center
Mon 06:53:15 PM 39.5414 -106.2481 81° East 538 619 35,100 49 Climbing Denver Center
Mon 06:54:16 PM 39.5678 -106.0467 80° East 529 609 35,100 -49 Level Denver Center
Mon 06:55:18 PM 39.5906 -105.8589 81° East 529 609 35,000  Descending Denver Center
Mon 06:56:20 PM 39.6131 -105.6719 81° East 527 606 35,100  Climbing Denver Center
Mon 06:57:21 PM 39.6358 -105.4881 81° East 524 603 35,000  Descending Denver Center
Mon 06:58:23 PM 39.6561 -105.3031 82° East 517 595 35,100  Climbing Denver Center
Mon 06:59:24 PM 39.6792 -105.1153 81° East 521 600 35,000 -49 Descending Denver Center
Mon 07:00:26 PM 39.7003 -104.9300 82° East 521 600 35,000  Level Denver Center
Mon 07:01:28 PM 39.7214 -104.7400 82° East 520 598 35,000  Level Denver Center
Mon 07:02:29 PM 39.7439 -104.5475 81° East 523 602 35,000  Level Denver Center
Mon 07:03:31 PM 39.7644 -104.3564 82° East 528 608 35,000 48 Level Denver Center
Mon 07:04:33 PM 39.7903 -104.1253 82° East 533 613 35,100 49 Climbing Denver Center
Mon 07:05:34 PM 39.8094 -103.9353 82° East 534 615 35,100 -49 Level Denver Center
Mon 07:06:36 PM 39.8297 -103.7478 82° East 530 610 35,000  Descending Denver Center
Mon 07:07:38 PM 39.8489 -103.5606 82° East 525 604 35,100  Climbing Denver Center
Mon 07:08:40 PM 39.8689 -103.3736 82° East 525 604 35,000 -49 Descending Denver Center
Mon 07:09:41 PM 39.8875 -103.1872 83° East 523 602 35,000  Level Denver Center
Mon 07:10:43 PM 39.9058 -103.0008 83° East 522 601 35,000  Level Denver Center
Mon 07:11:45 PM 39.9269 -102.7761 83° East 522 601 35,000 49 Level Denver Center
Mon 07:12:46 PM 39.9447 -102.5894 83° East 521 600 35,100  Climbing Denver Center
Mon 07:13:48 PM 39.9631 -102.4111 82° East 521 600 35,000 -48 Descending Denver Center
Mon 07:14:50 PM 39.9806 -102.2031 84° East 519 597 35,000 48 Level Denver Center
Mon 07:15:52 PM 39.9967 -102.0242 83° East 519 597 35,100 48 Climbing Denver Center
Mon 07:16:54 PM 40.0172 -101.8158 83° East 519 597 35,100 -49 Level Denver Center
Mon 07:17:55 PM 40.0350 -101.6389 82° East 518 596 35,000 -49 Descending Denver Center
Mon 07:18:57 PM 40.0511 -101.4639 83° East 515 593 35,000  Level Denver Center
Mon 07:19:59 PM 40.0700 -101.2581 83° East 512 589 35,000 48 Level Denver Center
Mon 07:21:01 PM 40.0856 -101.0811 83° East 514 592 35,100 48 Climbing Denver Center
Mon 07:22:03 PM 40.1039 -100.8761 83° East 514 592 35,100 -44 Level Denver Center
Mon 07:23:17 PM 40.1242 -100.6397 84° East 514 592 35,000  Descending Denver Center
Mon 07:24:19 PM 40.1400 -100.4625 83° East 517 595 35,100  Climbing Denver Center
Mon 07:25:21 PM 40.1558 -100.2556 84° East 515 593 35,000 -49 Descending Denver Center
Mon 07:26:22 PM 40.1711 -100.0806 83° East 512 589 35,000  Level Denver Center
Mon 07:27:24 PM 40.1875 -99.8753 84° East 512 589 35,000 48 Level Denver Center
Mon 07:28:26 PM 40.2017 -99.6867 84° East 512 589 35,100  Climbing Denver Center
Mon 07:29:28 PM 40.2161 -99.5031 84° East 511 588 35,000 -48 Descending Denver Center
Mon 07:30:30 PM 40.2294 -99.3186 85° East 507 583 35,000  Level Denver Center
Mon 07:31:32 PM 40.2433 -99.1361 84° East 507 583 35,000  Level Denver Center
Mon 07:32:34 PM 40.2569 -98.9525 84° East 507 583 35,000  Level Denver Center
Mon 07:33:36 PM 40.2694 -98.7656 85° East 510 587 35,000 48 Level Denver Center
Mon 07:34:38 PM 40.2842 -98.5389 85° East 521 600 35,100 41 Climbing Denver Center
Mon 07:36:02 PM 40.3025 -98.2733 85° East 523 602 35,100 -41 Level Minneapolis Center
Mon 07:37:03 PM 40.3142 -98.0861 85° East 522 601 35,000 -49 Descending Minneapolis Center
Mon 07:38:05 PM 40.3261 -97.8997 85° East 520 598 35,000  Level Minneapolis Center
Mon 07:39:07 PM 40.3369 -97.7117 86° East 520 598 35,000 162 Level Minneapolis Center
Mon 07:41:10 PM 40.3600 -97.3292 85° East 527 606 35,500 519 Climbing Kansas City Center
Mon 07:42:12 PM 40.3708 -97.1239 86° East 527 606 36,600 780 Climbing Minneapolis Center
Mon 07:43:13 PM 40.3811 -96.9361 86° East 525 604 37,100 195 Climbing Minneapolis Center
Mon 07:44:15 PM 40.3906 -96.7525 86° East 512 589 37,000 -49 Descending Minneapolis Center
Mon 07:45:16 PM 40.3992 -96.5661 86° East 512 589 37,000  Level Minneapolis Center
Mon 07:46:18 PM 40.4111 -96.3464 86° East 511 588 37,000  Level Minneapolis Center
Mon 07:47:20 PM 40.4197 -96.1622 86° East 508 585 37,000 49 Level Minneapolis Center
Mon 07:48:21 PM 40.4286 -95.9778 86° East 508 585 37,100 49 Climbing Minneapolis Center
Mon 07:49:23 PM 40.4361 -95.7931 87° East 509 586 37,100 -48 Level Minneapolis Center
Mon 07:50:25 PM 40.4439 -95.6081 87° East 509 586 37,000  Descending Minneapolis Center
Mon 07:51:26 PM 40.4508 -95.4219 87° East 509 586 37,100 49 Climbing Minneapolis Center
Mon 07:52:28 PM 40.4589 -95.2347 87° East 511 588 37,100 -48 Level Minneapolis Center
Mon 07:53:30 PM 40.4667 -95.0114 87° East 511 588 37,000 -49 Descending Minneapolis Center
Mon 07:54:31 PM 40.4744 -94.8272 87° East 511 588 37,000 49 Level Minneapolis Center
Mon 07:55:33 PM 40.4808 -94.6428 87° East 511 588 37,100  Climbing Minneapolis Center
Mon 07:56:34 PM 40.4853 -94.4608 88° East 509 586 37,000 -49 Descending Minneapolis Center
Mon 07:57:36 PM 40.4883 -94.2783 89° East 506 582 37,000  Level Minneapolis Center
Mon 07:58:38 PM 40.4953 -94.0969 87° East 506 582 37,000  Level Minneapolis Center
Mon 07:59:39 PM 40.5006 -93.9125 88° East 506 582 37,000 49 Level Minneapolis Center
Mon 08:00:41 PM 40.5008 -93.6933 90° East 506 582 37,100 48 Climbing Minneapolis Center
Mon 08:01:43 PM 40.5025 -93.5100 89° East 506 582 37,100  Level Minneapolis Center
Mon 08:02:44 PM 40.5039 -93.3317 89° East 497 572 37,100 -49 Level Minneapolis Center
Mon 08:03:46 PM 40.5056 -93.1539 89° East 494 568 37,000 -48 Descending Minneapolis Center
Mon 08:04:48 PM 40.5033 -92.9739 91° East 493 567 37,000 49 Level Minneapolis Center
Mon 08:05:49 PM 40.5036 -92.7867 90° East 505 581 37,100 49 Climbing Minneapolis Center
Mon 08:06:51 PM 40.5042 -92.5981 90° East 507 583 37,100  Level Minneapolis Center
Mon 08:07:53 PM 40.5031 -92.4111 90° East 507 583 37,100 -49 Level Minneapolis Center
Mon 08:08:54 PM 40.5014 -92.1928 91° East 502 578 37,000 -45 Descending Minneapolis Center
Mon 08:10:05 PM 40.5000 -92.0108 91° East 497 572 37,000  Level Kansas City Center
Mon 08:11:08 PM 40.5019 -91.7917 89° East 498 573 37,000 48 Level Kansas City Center
Mon 08:12:09 PM 40.5044 -91.6092 89° East 501 577 37,100  Climbing Kansas City Center
Mon 08:13:12 PM 40.5064 -91.4264 89° East 501 577 37,000 -49 Descending Kansas City Center
Mon 08:14:12 PM 40.5086 -91.2425 89° East 501 577 37,000 48 Level Kansas City Center
Mon 08:15:17 PM 40.5108 -91.0589 89° East 502 578 37,100 42 Climbing Kansas City Center
Mon 08:16:34 PM 40.5133 -90.8006 89° East 506 582 37,100  Level Chicago Center
Mon 08:17:36 PM 40.5153 -90.6147 89° East 506 582 37,100  Level Chicago Center
Mon 08:18:38 PM 40.5283 -90.4281 85° East 510 587 37,100 -48 Level Chicago Center
Mon 08:19:40 PM 40.5436 -90.2431 84° East 510 587 37,000 -48 Descending Chicago Center
Mon 08:20:42 PM 40.5639 -90.0219 83° East 510 587 37,000  Level Chicago Center
Mon 08:21:44 PM 40.5853 -89.8386 81° East 510 587 37,000  Level Chicago Center
Mon 08:22:46 PM 40.6050 -89.6528 82° East 512 589 37,000 48 Level Chicago Center
Mon 08:23:48 PM 40.6239 -89.4797 82° East 513 590 37,100 48 Climbing Chicago Center
Mon 08:24:50 PM 40.6489 -89.2586 81° East 513 590 37,100  Level Chicago Center
Mon 08:25:52 PM 40.6689 -89.0750 82° East 512 589 37,100 -48 Level Chicago Center
Mon 08:26:54 PM 40.6900 -88.8914 81° East 511 588 37,000 -48 Descending Chicago Center
Mon 08:27:56 PM 40.7078 -88.6986 83° East 504 580 37,000  Level Chicago Center
Mon 08:28:58 PM 40.7000 -88.5206 93° East 495 570 37,000  Level Chicago Center
Mon 08:30:01 PM 40.6867 -88.3400 96° East 496 571 37,000 48 Level Chicago Center
Mon 08:31:03 PM 40.6708 -88.1236 95° East 498 573 37,100 48 Climbing Chicago Center
Mon 08:32:05 PM 40.6578 -87.9419 95° East 501 577 37,100  Level Chicago Center
Mon 08:33:07 PM 40.6444 -87.7597 95° East 503 579 37,100 -48 Level Chicago Center
Mon 08:34:09 PM 40.6272 -87.5656 97° East 504 580 37,000  Descending Chicago Center
Mon 08:35:11 PM 40.6144 -87.3947 96° East 504 580 37,100 48 Climbing Chicago Center
Mon 08:36:13 PM 40.5950 -87.1736 97° East 509 586 37,100 -48 Level Chicago Center
Mon 08:37:15 PM 40.5814 -87.0111 96° East 507 583 37,000  Descending Chicago Center
Mon 08:38:17 PM 40.5661 -86.8261 96° East 507 583 37,100  Climbing Chicago Center
Mon 08:39:19 PM 40.5492 -86.6444 97° East 503 579 37,000 -48 Descending Chicago Center
Mon 08:40:21 PM 40.5300 -86.4264 97° East 501 577 37,000  Level Chicago Center
Mon 08:41:23 PM 40.5136 -86.2458 97° East 499 574 37,000  Level Chicago Center
Mon 08:42:25 PM 40.4972 -86.0658 97° East 498 573 37,000  Level Chicago Center
Mon 08:43:27 PM 40.4794 -85.8836 97° East 500 575 37,000  Level Chicago Center
Mon 08:44:29 PM 40.4619 -85.7031 97° East 500 575 37,000 48 Level Chicago Center
Mon 08:45:31 PM 40.4447 -85.5203 97° East 501 577 37,100  Climbing Chicago Center
Mon 08:46:33 PM 40.4222 -85.3019 98° East 502 578 37,000  Descending Chicago Center
Mon 08:47:35 PM 40.4028 -85.1172 98° East 509 586 37,100  Climbing Chicago Center
Mon 08:48:21 PM 40.3922 -85.0086 97° East 503 579 37,000 -56 Descending Indianapolis Center
Mon 08:49:22 PM 40.3706 -84.8017 98° East 503 579 37,000 49 Level Indianapolis Center
Mon 08:50:24 PM 40.3514 -84.6203 98° East 503 579 37,100  Climbing Indianapolis Center
Mon 08:51:25 PM 40.3319 -84.4394 98° East 504 580 37,000  Descending Indianapolis Center
Mon 08:52:27 PM 40.3119 -84.2600 98° East 503 579 37,100  Climbing Indianapolis Center
Mon 08:53:28 PM 40.2933 -84.0842 98° East 493 567 37,000 -49 Descending Indianapolis Center
Mon 08:54:30 PM 40.2914 -83.9028 91° East 494 568 37,000  Level Indianapolis Center
Mon 08:55:31 PM 40.2978 -83.6811 88° East 502 578 37,000  Level Indianapolis Center
Mon 08:56:33 PM 40.3022 -83.4989 88° East 501 577 37,000 49 Level Indianapolis Center
Mon 08:57:34 PM 40.3058 -83.3161 88° East 500 575 37,100  Climbing Indianapolis Center
Mon 08:58:36 PM 40.3100 -83.1347 88° East 499 574 37,000 -49 Descending Indianapolis Center
Mon 08:59:37 PM 40.3058 -82.9553 92° East 495 570 37,000 49 Level Indianapolis Center
Mon 09:00:38 PM 40.2878 -82.7811 98° East 493 567 37,100  Climbing Indianapolis Center
Mon 09:01:40 PM 40.2814 -82.6017 93° East 493 567 37,000 -49 Descending Indianapolis Center
Mon 09:02:41 PM 40.2872 -82.4219 88° East 493 567 37,000  Level Indianapolis Center
Mon 09:03:43 PM 40.2903 -82.2422 89° East 492 566 37,000  Level Indianapolis Center
Mon 09:04:44 PM 40.2953 -82.0636 88° East 492 566 37,000  Level Indianapolis Center
Mon 09:05:45 PM 40.2992 -81.8522 89° East 492 566 37,000  Level Indianapolis Center
Mon 09:06:47 PM 40.3028 -81.6700 88° East 494 568 37,000 49 Level Indianapolis Center
Mon 09:07:48 PM 40.3047 -81.4881 89° East 495 570 37,100 49 Climbing Indianapolis Center
Mon 09:08:49 PM 40.3086 -81.3039 88° East 497 572 37,100  Level Indianapolis Center
Mon 09:09:51 PM 40.3103 -81.1236 89° East 498 573 37,100 -49 Level Indianapolis Center
Mon 09:10:52 PM 40.3133 -80.9425 89° East 497 572 37,000 -49 Descending Indianapolis Center
Mon 09:11:54 PM 40.3147 -80.7614 89° East 494 568 37,000  Level Indianapolis Center
Mon 09:12:55 PM 40.3158 -80.5808 89° East 494 568 37,000 49 Level Indianapolis Center
Mon 09:13:57 PM 40.3172 -80.4000 89° East 494 568 37,100  Climbing Indianapolis Center
Mon 09:14:58 PM 40.3181 -80.2189 90° East 494 568 37,000 -42 Descending Indianapolis Center
Mon 09:16:19 PM 40.3183 -79.9478 90° East 498 573 37,000  Level Cleveland Center
Mon 09:17:21 PM 40.3186 -79.7664 90° East 496 571 37,000  Level Cleveland Center
Mon 09:18:22 PM 40.3189 -79.5836 90° East 496 571 37,000  Level Cleveland Center
Mon 09:19:24 PM 40.3181 -79.3992 90° East 498 573 37,000  Level Cleveland Center
Mon 09:20:26 PM 40.3178 -79.2114 90° East 499 574 37,000 -49 Level Cleveland Center
Mon 09:21:27 PM 40.3181 -79.0325 90° East 498 573 36,900 -488 Descending Cleveland Center
Mon 09:22:29 PM 40.3169 -78.8542 90° East 498 573 36,000 -1,161 Descending Cleveland Center
Mon 09:23:31 PM 40.3164 -78.6778 90° East 497 572 34,500 -1,854 Descending Cleveland Center
Mon 09:24:32 PM 40.3164 -78.4731 90° East 482 555 32,200 -2,976 Descending Cleveland Center
Mon 09:25:34 PM 40.3153 -78.3014 90° East 477 549 28,400 -3,000 Descending Cleveland Center
Mon 09:26:36 PM 40.3139 -78.1256 91° East 482 555 26,000 -1,659 Descending Cleveland Center
Mon 09:27:37 PM 40.3142 -77.9542 90° East 482 555 25,000 -585 Descending Cleveland Center
Mon 09:28:39 PM 40.3111 -77.7861 91° East 474 545 24,800 -581 Descending Cleveland Center
Mon 09:29:41 PM 40.2903 -77.6008 98° East 471 542 23,800 -927 Descending Cleveland Center
Mon 09:30:42 PM 40.2736 -77.4375 98° East 457 526 22,900 -1,023 Descending Cleveland Center
Mon 09:31:50 PM 40.2508 -77.2411 99° East 454 522 21,600 -1,031 Descending New York Center
Mon 09:32:50 PM 40.2339 -77.0928 98° East 436 502 20,700 -950 Descending New York Center
Mon 09:33:50 PM 40.2206 -76.9500 97° East 411 473 19,700 -950 Descending New York Center
Mon 09:34:50 PM 40.2064 -76.8236 98° East 395 455 18,800 -900 Descending New York Center
Mon 09:35:50 PM 40.1903 -76.6864 99° East 389 448 17,900 -1,100 Descending New York Center
Mon 09:36:50 PM 40.1744 -76.5464 98° East 363 418 16,600 -1,350 Descending New York Center
Mon 09:37:50 PM 40.1594 -76.4203 99° East 351 404 15,200 -1,400 Descending New York Center
Mon 09:38:50 PM 40.1647 -76.3119 86° East 345 397 13,800 -1,400 Descending New York Center
Mon 09:39:50 PM 40.1831 -76.1886 79° East 322 371 12,400 -1,289 Descending New York Center
Mon 09:40:51 PM 40.1922 -76.0778 84° East 309 356 11,200 -1,250 Descending New York Center
Mon 09:41:50 PM 40.1592 -75.9747 113° Southeast 302 348 9,900 -1,563 Descending New York Center
Mon 09:42:50 PM 40.1431 -75.8703 101° East 302 348 8,100 -950 Descending New York Center
Mon 09:43:50 PM 40.1322 -75.7772 99° East 296 341 8,000 -700 Descending New York Center
Mon 09:44:50 PM 40.1161 -75.6647 101° East 291 335 6,700 -1,000 Descending New York Center
Mon 09:45:50 PM 40.1033 -75.5717 100° East 286 329 6,000 -350 Descending New York Center
Mon 09:46:50 PM 40.0889 -75.4647 100° East 274 315 6,000  Level New York Center
Mon 09:47:50 PM 40.0778 -75.3744 99° East 274 315 6,000  Level New York Center
Mon 09:48:34 PM 40.0667 -75.3000 101° East 251 289 6,000 -122 Level Philadelphia TRACON
Mon 09:49:28 PM 40.0500 -75.2167 105° East 241 277 5,800 -737 Descending Philadelphia TRACON
Mon 09:50:28 PM 40.0333 -75.1333 105° East 243 280 4,600 -900 Descending Philadelphia TRACON
Mon 09:51:28 PM 40.0000 -75.0667 123° Southeast 213 245 4,000 -550 Descending Philadelphia TRACON
Mon 09:52:28 PM 39.9500 -75.0167 143° Southeast 197 227 3,500 -850 Descending Philadelphia TRACON
Mon 09:53:28 PM 39.9000 -75.0500 207° Southwest 199 229 2,300 -850 Descending Philadelphia TRACON
Mon 09:54:28 PM 39.9000 -75.1167 270° West 162 186 1,800 -619 Descending Philadelphia TRACON
Mon 09:55:34 PM 39.8833 -75.1667 247° West 141 162 1,000 -750 Descending Philadelphia TRACON
Mon 09:56:28 PM 39.8833 -75.2000 270° West 137 158 300 -778 Descending Philadelphia TRACON
Mon 09:58:00 PM 39.8667 -75.2333 247° West  Level FlightAware Approximate
Mon 10:05:00 PM 39.8722 -75.2409 247° West  Level Estimated

Login

Don't have an account? Register now (free) for customized features, flight alerts, and more!